Time;durP1;ratioP1;P1;durP2;ratioP2;P2;SDS_P1;SDS_P2;PMS_P1;PMS_P2;Temp;Humidity;BMP_temperature;BMP_pressure;BME280_temperature;BME280_humidity;BME280_pressure;Samples;Min_cycle;Max_cycle;Signal;HPM_P1;HPM_P2
2022/10/29 00:01:41;;;;;;;;;;;;;;;17.45;71.18;100678.19;4973953;28;19991;-62
2022/10/29 00:04:06;;;;;;;;;;;;;;;17.89;69.18;100677.97;4973735;28;19976;-62
2022/10/29 00:06:32;;;;;;;;;;;;;;;17.90;69.14;100661.94;4975543;28;19933;-62
2022/10/29 00:08:57;;;;;;;;;;;;;;;18.02;68.79;100664.94;4975248;28;19921;-62
2022/10/29 00:11:22;;;;;;;;;;;;;;;18.15;68.11;100663.41;4972861;28;20406;-62
2022/10/29 00:13:52;;;;;;;;;;;;;;;18.16;68.08;100651.88;4975407;28;19925;-63
2022/10/29 00:16:18;;;;;;;;;;;;;;;18.19;68.40;100654.34;4972616;28;19965;-60
2022/10/29 00:18:44;;;;;;;;;;;;;;;18.24;67.84;100652.34;4971491;28;20354;-62
2022/10/29 00:21:11;;;;;;;;;;;;;;;18.32;67.73;100658.16;4973039;28;19985;-62
2022/10/29 00:23:37;;;;;;;;;;;;;;;18.31;67.66;100652.88;4974422;28;19918;-62
2022/10/29 00:26:03;;;;;;;;;;;;;;;18.28;67.65;100645.94;4974071;28;20318;-62
2022/10/29 00:28:29;;;;;;;;;;;;;;;18.42;67.13;100646.09;4975101;28;19945;-61
2022/10/29 00:30:54;;;;;;;;;;;;;;;18.46;66.87;100646.81;4973204;28;20290;-61
2022/10/29 00:33:20;;;;;;;;;;;;;;;18.45;66.98;100640.63;4983928;28;19949;-61
2022/10/29 00:36:02;;;;;;;;;;;;;;;18.45;66.61;100634.44;4975293;28;19922;-62
2022/10/29 00:38:28;;;;;;;;;;;;;;;18.44;66.62;100627.41;4969699;28;19917;-62
2022/10/29 00:40:54;;;;;;;;;;;;;;;18.44;66.81;100627.41;4972332;28;20028;-62
2022/10/29 00:43:20;;;;;;;;;;;;;;;18.41;66.77;100623.09;4973874;28;20025;-61
2022/10/29 00:45:50;;;;;;;;;;;;;;;18.44;66.72;100628.28;4972847;28;19969;-63
2022/10/29 00:48:15;;;;;;;;;;;;;;;18.33;67.33;100625.28;4974660;28;19997;-62
2022/10/29 00:50:41;;;;;;;;;;;;;;;18.28;67.73;100618.50;4973827;28;20370;-62
2022/10/29 00:53:07;;;;;;;;;;;;;;;18.41;66.89;100625.75;4979326;28;20448;-61
2022/10/29 00:55:32;;;;;;;;;;;;;;;18.44;66.85;100622.94;4980089;28;19997;-61
2022/10/29 00:57:59;;;;;;;;;;;;;;;18.41;66.83;100620.44;4978091;28;19922;-62
2022/10/29 01:00:25;;;;;;;;;;;;;;;18.14;68.15;100620.00;4977750;28;19924;-62
2022/10/29 01:02:50;;;;;;;;;;;;;;;18.13;68.25;100617.44;4977808;28;20241;-62
2022/10/29 01:05:18;;;;;;;;;;;;;;;17.81;68.92;100617.19;4977967;28;19918;-62
2022/10/29 01:07:44;;;;;;;;;;;;;;;18.31;67.54;100611.22;4977286;28;20020;-62
2022/10/29 01:10:10;;;;;;;;;;;;;;;18.30;67.74;100606.81;4977924;28;20389;-62
2022/10/29 01:12:47;;;;;;;;;;;;;;;18.28;67.49;100606.03;4977098;28;20352;-62
2022/10/29 01:15:30;;;;;;;;;;;;;;;18.40;67.06;100594.78;4978534;28;19968;-62
2022/10/29 01:18:07;;;;;;;;;;;;;;;18.40;67.06;100594.78;4975315;28;20007;-62
2022/10/29 01:20:51;;;;;;;;;;;;;;;18.21;67.28;100593.97;4978459;28;19914;-62
2022/10/29 01:23:16;;;;;;;;;;;;;;;18.39;67.29;100595.72;4975924;28;19918;-62
2022/10/29 01:26:04;;;;;;;;;;;;;;;18.45;67.12;100592.75;4977551;28;19972;-62
2022/10/29 01:28:39;;;;;;;;;;;;;;;18.50;66.92;100581.00;4972333;28;19921;-62
2022/10/29 01:31:04;;;;;;;;;;;;;;;18.53;66.73;100578.19;4976191;28;20005;-62
2022/10/29 01:33:29;;;;;;;;;;;;;;;18.52;66.76;100572.00;4976484;28;20433;-61
2022/10/29 01:36:27;;;;;;;;;;;;;;;18.55;66.80;100586.94;4977817;28;19925;-61
2022/10/29 01:39:00;;;;;;;;;;;;;;;18.50;66.86;100595.16;4954783;28;19926;-62
2022/10/29 01:41:38;;;;;;;;;;;;;;;18.47;67.17;100584.66;4976668;28;20366;-63
2022/10/29 01:44:09;;;;;;;;;;;;;;;18.46;67.23;100589.13;4974334;28;19961;-64
2022/10/29 01:46:39;;;;;;;;;;;;;;;18.34;67.96;100588.91;4977602;28;20452;-63
2022/10/29 01:49:07;;;;;;;;;;;;;;;18.50;67.46;100583.66;4974965;28;19925;-63
2022/10/29 01:51:35;;;;;;;;;;;;;;;18.62;66.77;100586.53;4975813;28;20279;-63
2022/10/29 01:54:04;;;;;;;;;;;;;;;18.62;66.97;100599.84;4975609;28;19914;-62
2022/10/29 01:56:29;;;;;;;;;;;;;;;18.66;67.04;100592.56;4976061;28;20453;-63
2022/10/29 01:58:56;;;;;;;;;;;;;;;18.54;67.30;100590.56;4975545;28;19957;-63
2022/10/29 02:01:31;;;;;;;;;;;;;;;18.73;67.04;100582.50;4977668;28;20362;-62
2022/10/29 02:04:05;;;;;;;;;;;;;;;18.57;67.20;100582.41;4975595;28;19936;-63
2022/10/29 02:06:36;;;;;;;;;;;;;;;18.64;66.72;100581.16;4976795;28;19925;-63
2022/10/29 02:09:08;;;;;;;;;;;;;;;18.61;66.88;100594.63;4975892;28;19928;-63
2022/10/29 02:11:52;;;;;;;;;;;;;;;18.58;67.15;100592.13;4977357;28;19918;-63
2022/10/29 02:14:25;;;;;;;;;;;;;;;18.52;67.30;100595.09;4977311;28;19914;-63
2022/10/29 02:16:52;;;;;;;;;;;;;;;18.26;68.30;100601.72;4975479;28;19921;-63
2022/10/29 02:19:18;;;;;;;;;;;;;;;18.54;67.19;100595.88;4977505;28;20012;-63
2022/10/29 02:21:44;;;;;;;;;;;;;;;18.42;67.74;100590.22;5008116;28;20073;-63
2022/10/29 02:24:09;;;;;;;;;;;;;;;18.58;67.07;100586.78;4974697;28;20037;-61
2022/10/29 02:26:34;;;;;;;;;;;;;;;18.62;66.93;100577.72;4976139;28;20009;-62
2022/10/29 02:29:01;;;;;;;;;;;;;;;18.74;66.57;100577.09;4975986;28;19925;-63
2022/10/29 02:31:26;;;;;;;;;;;;;;;18.69;66.73;100563.16;4976044;28;19993;-63
2022/10/29 02:33:51;;;;;;;;;;;;;;;18.71;66.75;100566.59;4975421;28;20436;-63
2022/10/29 02:36:17;;;;;;;;;;;;;;;18.41;68.10;100579.69;4975813;28;19945;-62
2022/10/29 02:38:42;;;;;;;;;;;;;;;18.61;67.34;100587.50;5008291;28;19982;-62
2022/10/29 02:41:07;;;;;;;;;;;;;;;18.62;67.09;100589.22;4975352;28;19922;-62
2022/10/29 02:43:33;;;;;;;;;;;;;;;18.58;67.49;100581.47;4976759;28;20305;-63
2022/10/29 02:46:17;;;;;;;;;;;;;;;18.68;67.08;100588.06;4976720;28;19960;-62
2022/10/29 02:48:43;;;;;;;;;;;;;;;18.70;67.17;100583.53;4975440;28;19918;-61
2022/10/29 02:51:08;;;;;;;;;;;;;;;18.72;66.78;100570.16;4974678;28;19922;-61
2022/10/29 02:53:34;;;;;;;;;;;;;;;18.80;66.58;100566.16;4975206;28;20338;-62
2022/10/29 02:55:59;;;;;;;;;;;;;;;18.87;66.28;100570.22;4974638;28;19922;-61
2022/10/29 02:58:24;;;;;;;;;;;;;;;18.87;66.36;100558.69;4976445;28;19978;-62
2022/10/29 03:00:50;;;;;;;;;;;;;;;18.84;66.48;100551.72;4975664;28;19931;-61
2022/10/29 03:03:15;;;;;;;;;;;;;;;18.84;66.37;100549.06;4975275;28;19992;-62
2022/10/29 03:05:41;;;;;;;;;;;;;;;18.74;66.75;100553.16;4975578;28;19920;-62
2022/10/29 03:08:06;;;;;;;;;;;;;;;18.65;67.11;100546.47;4975670;28;20432;-62
2022/10/29 03:10:31;;;;;;;;;;;;;;;18.72;66.78;100544.41;4976080;28;19918;-61
2022/10/29 03:13:00;;;;;;;;;;;;;;;18.73;66.92;100566.53;4974799;28;19958;-61
2022/10/29 03:15:25;;;;;;;;;;;;;;;18.52;68.03;100560.50;4975809;28;20402;-61
2022/10/29 03:17:51;;;;;;;;;;;;;;;18.63;67.66;100560.78;4974680;28;19929;-61
2022/10/29 03:20:16;;;;;;;;;;;;;;;18.60;67.49;100560.97;4976377;28;19914;-61
2022/10/29 03:22:41;;;;;;;;;;;;;;;18.55;68.05;100563.00;4975351;28;20342;-61
2022/10/29 03:25:07;;;;;;;;;;;;;;;18.59;67.50;100560.13;4973622;28;19922;-61
2022/10/29 03:27:38;;;;;;;;;;;;;;;18.58;67.75;100554.84;4972191;28;19929;-61
2022/10/29 03:30:04;;;;;;;;;;;;;;;18.68;67.31;100551.66;4969795;28;19925;-63
2022/10/29 03:32:29;;;;;;;;;;;;;;;18.64;67.46;100559.88;4972721;28;19931;-62
2022/10/29 03:34:54;;;;;;;;;;;;;;;18.41;68.22;100558.41;4971619;28;19948;-62
2022/10/29 03:37:20;;;;;;;;;;;;;;;18.55;67.59;100561.22;4971163;28;19922;-62
2022/10/29 03:39:45;;;;;;;;;;;;;;;18.34;68.61;100562.31;4970893;28;19980;-62
2022/10/29 03:42:10;;;;;;;;;;;;;;;18.31;68.68;100560.69;4972614;28;20277;-62
2022/10/29 03:44:36;;;;;;;;;;;;;;;18.45;68.06;100566.13;4974124;28;19926;-62
2022/10/29 03:47:01;;;;;;;;;;;;;;;18.32;68.58;100573.03;4974603;28;19926;-61
2022/10/29 03:49:26;;;;;;;;;;;;;;;18.29;68.82;100572.31;4974803;28;20314;-62
2022/10/29 03:51:51;;;;;;;;;;;;;;;18.22;68.59;100574.41;4974517;28;19922;-62
2022/10/29 03:54:17;;;;;;;;;;;;;;;18.22;68.93;100569.97;4974983;28;19926;-62
2022/10/29 03:56:42;;;;;;;;;;;;;;;17.91;70.28;100570.66;4975430;28;19918;-62
2022/10/29 03:59:07;;;;;;;;;;;;;;;17.64;71.35;100572.81;4974412;28;19926;-62
2022/10/29 04:01:33;;;;;;;;;;;;;;;17.61;71.64;100577.41;4973862;28;20310;-61
2022/10/29 04:03:58;;;;;;;;;;;;;;;17.65;71.42;100574.53;4973228;28;20301;-63
2022/10/29 04:06:23;;;;;;;;;;;;;;;17.77;71.77;100578.41;4973490;28;19953;-63
2022/10/29 04:08:48;;;;;;;;;;;;;;;17.46;72.41;100585.16;4975435;28;19965;-63
2022/10/29 04:11:14;;;;;;;;;;;;;;;17.43;72.42;100584.44;4973934;28;19922;-63
2022/10/29 04:13:39;;;;;;;;;;;;;;;17.62;71.42;100579.13;4972890;28;19930;-63
2022/10/29 04:16:04;;;;;;;;;;;;;;;17.78;71.77;100568.66;4975049;28;19983;-63
2022/10/29 04:18:30;;;;;;;;;;;;;;;17.54;71.85;100574.16;4972908;28;19921;-63
2022/10/29 04:20:58;;;;;;;;;;;;;;;17.46;72.47;100584.28;4975269;28;19922;-63
2022/10/29 04:23:24;;;;;;;;;;;;;;;17.47;72.44;100576.28;4973596;28;19918;-61
2022/10/29 04:25:55;;;;;;;;;;;;;;;17.47;72.25;100578.03;4972565;28;19922;-61
2022/10/29 04:28:21;;;;;;;;;;;;;;;17.53;72.02;100575.09;4973012;28;20393;-61
2022/10/29 04:30:46;;;;;;;;;;;;;;;17.31;73.37;100587.66;4971208;28;19961;-63
2022/10/29 04:33:11;;;;;;;;;;;;;;;17.28;73.41;100582.50;4970351;28;20274;-62
2022/10/29 04:35:37;;;;;;;;;;;;;;;17.52;72.17;100577.84;4970514;28;20317;-63
2022/10/29 04:38:09;;;;;;;;;;;;;;;17.43;72.69;100573.81;4967943;28;20333;-62
2022/10/29 04:40:34;;;;;;;;;;;;;;;17.52;72.20;100581.34;4967596;28;19922;-62
2022/10/29 04:42:59;;;;;;;;;;;;;;;17.40;72.77;100589.91;4969532;28;19926;-62
2022/10/29 04:45:25;;;;;;;;;;;;;;;17.28;73.34;100580.72;4970933;28;19998;-62
2022/10/29 04:48:00;;;;;;;;;;;;;;;17.28;73.37;100577.19;4968201;28;19989;-62
2022/10/29 04:50:25;;;;;;;;;;;;;;;17.40;72.51;100569.50;4972132;28;19925;-63
2022/10/29 04:52:50;;;;;;;;;;;;;;;17.40;72.19;100574.81;4968744;28;19922;-62
2022/10/29 04:55:16;;;;;;;;;;;;;;;17.47;72.20;100576.28;5005718;28;19922;-63
2022/10/29 04:57:41;;;;;;;;;;;;;;;17.41;72.82;100575.69;4968865;28;20373;-62
2022/10/29 05:00:07;;;;;;;;;;;;;;;17.31;73.31;100585.00;4973864;28;20000;-62
2022/10/29 05:02:32;;;;;;;;;;;;;;;17.39;73.13;100591.66;4971851;28;19940;-62
2022/10/29 05:04:57;;;;;;;;;;;;;;;17.43;73.32;100603.91;4969859;28;19929;-62
2022/10/29 05:07:23;;;;;;;;;;;;;;;17.55;73.28;100593.63;4971061;28;19922;-64
2022/10/29 05:09:48;;;;;;;;;;;;;;;17.61;73.01;100591.53;4971427;28;20294;-63
2022/10/29 05:12:13;;;;;;;;;;;;;;;17.70;72.64;100583.13;4970136;28;20393;-62
2022/10/29 05:14:38;;;;;;;;;;;;;;;17.79;72.62;100579.19;4973764;28;20298;-62
2022/10/29 05:17:04;;;;;;;;;;;;;;;17.86;72.11;100577.09;4972786;28;20027;-64
2022/10/29 05:19:29;;;;;;;;;;;;;;;17.88;72.15;100584.09;4974734;28;19922;-63
2022/10/29 05:21:54;;;;;;;;;;;;;;;17.95;72.13;100581.97;4973089;28;20350;-63
2022/10/29 05:24:20;;;;;;;;;;;;;;;18.17;71.13;100581.78;4972390;28;19945;-62
2022/10/29 05:26:45;;;;;;;;;;;;;;;17.97;72.19;100586.28;4973734;28;19926;-63
2022/10/29 05:29:10;;;;;;;;;;;;;;;18.11;71.91;100588.28;4954024;28;19922;-63
2022/10/29 05:31:35;;;;;;;;;;;;;;;18.11;72.07;100590.94;4972723;28;20014;-63
2022/10/29 05:34:01;;;;;;;;;;;;;;;18.01;72.38;100592.31;4972851;28;19925;-63
2022/10/29 05:36:26;;;;;;;;;;;;;;;18.07;72.13;100599.09;4973153;28;19945;-62
2022/10/29 05:38:51;;;;;;;;;;;;;;;18.09;72.33;100611.41;4976244;28;20366;-63
2022/10/29 05:41:17;;;;;;;;;;;;;;;17.87;73.13;100600.09;5009300;28;20392;-62
2022/10/29 05:43:42;;;;;;;;;;;;;;;18.15;72.32;100599.59;4974982;28;20378;-63
2022/10/29 05:46:07;;;;;;;;;;;;;;;18.24;72.00;100604.47;4976428;28;19956;-64
2022/10/29 05:48:32;;;;;;;;;;;;;;;18.36;71.90;100611.84;4977231;28;19929;-64
2022/10/29 05:50:58;;;;;;;;;;;;;;;18.27;72.37;100604.31;4977482;28;19929;-62
2022/10/29 05:53:23;;;;;;;;;;;;;;;18.11;72.83;100613.97;4975922;28;19922;-64
2022/10/29 05:55:48;;;;;;;;;;;;;;;17.91;73.61;100634.44;4976911;28;20004;-62
2022/10/29 05:58:14;;;;;;;;;;;;;;;18.10;73.77;100629.06;4974724;28;19926;-62
2022/10/29 06:00:41;;;;;;;;;;;;;;;17.91;74.65;100633.56;4976970;28;20004;-63
2022/10/29 06:03:13;;;;;;;;;;;;;;;17.88;74.38;100625.75;4979389;28;19922;-63
2022/10/29 06:05:38;;;;;;;;;;;;;;;18.09;73.75;100626.50;4976520;28;19943;-63
2022/10/29 06:08:04;;;;;;;;;;;;;;;18.05;73.82;100625.78;4976520;28;20349;-63
2022/10/29 06:10:29;;;;;;;;;;;;;;;18.15;73.59;100631.50;4974991;28;19922;-63
2022/10/29 06:12:54;;;;;;;;;;;;;;;18.08;74.04;100635.41;4975059;28;19929;-63
2022/10/29 06:15:20;;;;;;;;;;;;;;;18.20;73.52;100640.13;4975536;28;19922;-62
2022/10/29 06:17:45;;;;;;;;;;;;;;;18.17;73.73;100638.47;5007027;28;19933;-63
2022/10/29 06:20:11;;;;;;;;;;;;;;;18.10;73.90;100638.84;4972852;28;19921;-63
2022/10/29 06:22:37;;;;;;;;;;;;;;;17.94;74.80;100647.56;4976179;28;19922;-64
2022/10/29 06:25:02;;;;;;;;;;;;;;;18.07;74.19;100639.84;4976464;28;19929;-63
2022/10/29 06:27:28;;;;;;;;;;;;;;;18.21;73.55;100641.84;4972050;28;19922;-63
2022/10/29 06:29:53;;;;;;;;;;;;;;;18.23;73.56;100650.59;4975216;28;19929;-62
2022/10/29 06:32:18;;;;;;;;;;;;;;;18.31;73.05;100653.78;4973807;28;19922;-62
2022/10/29 06:34:43;;;;;;;;;;;;;;;18.40;72.62;100648.00;4974467;28;19941;-62
2022/10/29 06:37:09;;;;;;;;;;;;;;;18.46;72.13;100657.44;4976303;28;19981;-63
2022/10/29 06:39:34;;;;;;;;;;;;;;;18.63;71.33;100662.81;4976136;28;19929;-65
2022/10/29 06:41:59;;;;;;;;;;;;;;;18.60;71.57;100664.75;4978469;28;19926;-63
2022/10/29 06:44:25;;;;;;;;;;;;;;;18.51;71.42;100660.75;4976593;28;19929;-62
2022/10/29 06:46:50;;;;;;;;;;;;;;;18.51;70.89;100671.41;4975625;28;19922;-64
2022/10/29 06:49:15;;;;;;;;;;;;;;;18.43;71.03;100671.78;4968737;28;19973;-63
2022/10/29 06:51:41;;;;;;;;;;;;;;;18.62;70.14;100676.16;4975445;28;20016;-63
2022/10/29 06:54:06;;;;;;;;;;;;;;;18.48;70.10;100678.69;4975840;28;19926;-63
2022/10/29 06:56:32;;;;;;;;;;;;;;;18.63;69.25;100676.13;4976108;28;20396;-63
2022/10/29 06:58:58;;;;;;;;;;;;;;;18.24;69.61;100678.09;4975944;28;19937;-64
2022/10/29 07:01:25;;;;;;;;;;;;;;;18.28;69.29;100680.50;4975564;28;19918;-63
2022/10/29 07:03:50;;;;;;;;;;;;;;;18.48;69.02;100670.69;4975280;28;19929;-64
2022/10/29 07:06:16;;;;;;;;;;;;;;;18.36;68.65;100688.97;4974955;28;19928;-64
2022/10/29 07:08:41;;;;;;;;;;;;;;;18.25;68.91;100690.44;5006992;28;19961;-64
2022/10/29 07:11:06;;;;;;;;;;;;;;;18.60;67.69;100696.69;4975401;28;19922;-64
2022/10/29 07:13:32;;;;;;;;;;;;;;;18.42;67.64;100693.13;5007075;28;19922;-64
2022/10/29 07:15:57;;;;;;;;;;;;;;;18.28;68.16;100714.22;4975207;28;20406;-63
2022/10/29 07:18:22;;;;;;;;;;;;;;;18.38;67.96;100692.41;4975599;28;19922;-63
2022/10/29 07:20:48;;;;;;;;;;;;;;;18.55;67.53;100693.38;4975083;28;20275;-63
2022/10/29 07:23:13;;;;;;;;;;;;;;;18.71;66.91;100694.34;4975390;28;20286;-63
2022/10/29 07:25:39;;;;;;;;;;;;;;;18.81;65.67;100702.75;4975096;28;20433;-63
2022/10/29 07:28:15;;;;;;;;;;;;;;;18.71;64.93;100710.31;4974292;28;19918;-63
2022/10/29 07:30:41;;;;;;;;;;;;;;;18.61;64.82;100709.06;4974951;28;19918;-63
2022/10/29 07:33:06;;;;;;;;;;;;;;;18.61;64.29;100701.06;4975077;28;19922;-63
2022/10/29 07:35:32;;;;;;;;;;;;;;;18.69;63.88;100707.72;4975378;28;19918;-64
2022/10/29 07:38:01;;;;;;;;;;;;;;;18.44;64.39;100710.75;4974818;28;19926;-64
2022/10/29 07:40:27;;;;;;;;;;;;;;;18.46;64.11;100697.34;4975144;28;19922;-64
2022/10/29 07:42:52;;;;;;;;;;;;;;;18.30;64.27;100702.56;4974930;28;19921;-64
2022/10/29 07:45:18;;;;;;;;;;;;;;;18.39;64.15;100710.13;4974020;28;19922;-64
2022/10/29 07:47:43;;;;;;;;;;;;;;;18.52;63.94;100698.88;4981939;28;19954;-64
2022/10/29 07:50:08;;;;;;;;;;;;;;;18.61;63.76;100704.59;4977181;28;20032;-64
2022/10/29 07:52:34;;;;;;;;;;;;;;;18.87;63.00;100703.31;4974378;28;19941;-64
2022/10/29 07:55:01;;;;;;;;;;;;;;;18.58;62.30;100709.19;4975212;28;19918;-63
2022/10/29 07:57:26;;;;;;;;;;;;;;;19.14;60.85;100694.81;4975452;28;19918;-63
2022/10/29 07:59:52;;;;;;;;;;;;;;;19.27;59.69;100693.25;4975958;28;20013;-64
2022/10/29 08:02:17;;;;;;;;;;;;;;;19.34;58.85;100697.31;4976525;28;19925;-63
2022/10/29 08:04:42;;;;;;;;;;;;;;;19.47;58.48;100710.84;4978863;28;19929;-63
2022/10/29 08:07:07;;;;;;;;;;;;;;;19.70;58.14;100685.63;4991526;28;19987;-63
2022/10/29 08:09:33;;;;;;;;;;;;;;;19.40;58.48;100665.03;4977096;28;20357;-62
2022/10/29 08:11:58;;;;;;;;;;;;;;;19.58;58.36;100684.47;4975278;28;19925;-62
2022/10/29 08:14:23;;;;;;;;;;;;;;;19.39;58.92;100692.63;4974606;28;20094;-62
2022/10/29 08:16:51;;;;;;;;;;;;;;;19.54;58.83;100706.91;4974296;28;19936;-62
2022/10/29 08:19:16;;;;;;;;;;;;;;;19.27;59.33;100701.25;4975131;28;19917;-62
2022/10/29 08:21:42;;;;;;;;;;;;;;;19.44;59.02;100701.22;4975049;28;19929;-62
2022/10/29 08:24:08;;;;;;;;;;;;;;;18.85;59.86;100691.88;4979880;28;19918;-63
2022/10/29 08:26:33;;;;;;;;;;;;;;;19.41;58.93;100696.03;4975035;28;20288;-63
2022/10/29 08:28:59;;;;;;;;;;;;;;;19.04;59.26;100690.94;4975061;28;20286;-63
2022/10/29 08:31:24;;;;;;;;;;;;;;;18.99;59.41;100700.94;4975565;28;20341;-63
2022/10/29 08:33:49;;;;;;;;;;;;;;;19.01;59.34;100701.75;4974643;28;20324;-63
2022/10/29 08:36:15;;;;;;;;;;;;;;;19.26;58.80;100693.31;4989357;28;19922;-63
2022/10/29 08:38:40;;;;;;;;;;;;;;;19.05;59.26;100725.47;4973950;28;19918;-64
2022/10/29 08:41:25;;;;;;;;;;;;;;;18.79;59.78;100712.59;4974359;28;19926;-63
2022/10/29 08:44:09;;;;;;;;;;;;;;;19.01;59.10;100709.72;4973845;28;20412;-63
2022/10/29 08:46:55;;;;;;;;;;;;;;;19.07;59.02;100720.06;4974710;28;20290;-64
2022/10/29 08:49:26;;;;;;;;;;;;;;;19.00;59.29;100726.66;4974007;28;19918;-64
2022/10/29 08:51:57;;;;;;;;;;;;;;;19.08;59.33;100716.47;4976604;28;20341;-64
2022/10/29 08:54:24;;;;;;;;;;;;;;;19.13;59.56;100722.41;4974266;28;20020;-64
2022/10/29 08:56:51;;;;;;;;;;;;;;;19.07;59.50;100725.38;4976752;28;19953;-64
2022/10/29 08:59:21;;;;;;;;;;;;;;;18.93;59.46;100732.28;4968267;28;19921;-63
2022/10/29 09:01:46;;;;;;;;;;;;;;;18.90;59.86;100732.44;4974057;28;19940;-63
2022/10/29 09:04:23;;;;;;;;;;;;;;;19.13;59.22;100727.75;4974061;28;20444;-64
2022/10/29 09:07:07;;;;;;;;;;;;;;;18.94;59.18;100741.97;4973822;28;19917;-64
2022/10/29 09:09:35;;;;;;;;;;;;;;;19.34;57.95;100731.06;4969871;28;20009;-64
2022/10/29 09:12:00;;;;;;;;;;;;;;;19.22;58.98;100732.56;4973858;28;19918;-64
2022/10/29 09:14:53;;;;;;;;;;;;;;;19.49;57.82;100732.94;4981177;28;19918;-62
2022/10/29 09:17:24;;;;;;;;;;;;;;;19.03;58.57;100739.78;4978395;28;19921;-64
2022/10/29 09:19:49;;;;;;;;;;;;;;;19.25;58.09;100726.25;4971086;28;19926;-63
2022/10/29 09:22:14;;;;;;;;;;;;;;;19.22;57.49;100716.59;4977691;28;19918;-63
2022/10/29 09:24:57;;;;;;;;;;;;;;;19.24;57.68;100733.38;4978034;28;20316;-63
2022/10/29 09:27:42;;;;;;;;;;;;;;;19.38;56.66;100733.50;5005496;28;19918;-63
2022/10/29 09:30:12;;;;;;;;;;;;;;;19.23;56.69;100729.00;4949951;28;19921;-63
2022/10/29 09:32:40;;;;;;;;;;;;;;;19.23;56.66;100744.09;4976810;28;19965;-63
2022/10/29 09:35:13;;;;;;;;;;;;;;;19.50;56.30;100741.78;4977311;28;20441;-63
2022/10/29 09:37:38;;;;;;;;;;;;;;;19.81;55.55;100744.56;4975033;28;19985;-63
2022/10/29 09:40:05;;;;;;;;;;;;;;;19.72;55.45;100753.06;4973637;28;20370;-62
2022/10/29 09:42:38;;;;;;;;;;;;;;;19.53;55.78;100757.63;4975053;28;19914;-62
2022/10/29 09:45:08;;;;;;;;;;;;;;;19.69;55.38;100745.22;4974337;28;19925;-62
2022/10/29 09:47:42;;;;;;;;;;;;;;;19.64;55.38;100755.28;4976706;28;19940;-62
2022/10/29 09:50:18;;;;;;;;;;;;;;;19.54;55.53;100775.31;4975776;28;19921;-63
2022/10/29 09:52:44;;;;;;;;;;;;;;;19.90;54.79;100772.53;4976891;28;19918;-63
2022/10/29 09:55:18;;;;;;;;;;;;;;;20.18;54.09;100782.56;4977236;28;19922;-62
2022/10/29 09:57:44;;;;;;;;;;;;;;;20.10;54.05;100780.31;4976851;28;19918;-62
2022/10/29 10:00:21;;;;;;;;;;;;;;;20.12;54.62;100789.09;4976842;28;20385;-63
2022/10/29 10:03:03;;;;;;;;;;;;;;;20.15;53.94;100775.59;4976756;28;20008;-63
2022/10/29 10:05:30;;;;;;;;;;;;;;;19.93;54.68;100799.03;4972722;28;20396;-62
2022/10/29 10:08:06;;;;;;;;;;;;;;;20.19;53.89;100797.63;4976735;28;19925;-63
2022/10/29 10:10:32;;;;;;;;;;;;;;;19.64;55.08;100787.28;4976577;28;20404;-63
2022/10/29 10:13:01;;;;;;;;;;;;;;;19.98;54.12;100785.47;4976639;28;19942;-64
2022/10/29 10:15:31;;;;;;;;;;;;;;;19.98;53.83;100801.47;4976643;28;20377;-64
2022/10/29 10:17:58;;;;;;;;;;;;;;;19.62;54.51;100771.34;4978608;28;19922;-62
2022/10/29 10:20:26;;;;;;;;;;;;;;;19.43;54.04;100782.09;4976521;28;20361;-63
2022/10/29 10:22:51;;;;;;;;;;;;;;;19.53;53.80;100803.78;4973413;28;20000;-64
2022/10/29 10:25:36;;;;;;;;;;;;;;;19.62;54.89;100794.47;4973496;28;20331;-64
2022/10/29 10:28:03;;;;;;;;;;;;;;;19.62;53.85;100794.47;4977175;28;19953;-64
2022/10/29 10:30:28;;;;;;;;;;;;;;;19.81;53.82;100799.69;4977148;28;19960;-65
2022/10/29 10:32:58;;;;;;;;;;;;;;;19.76;53.52;100783.97;4977021;28;19953;-65
2022/10/29 10:35:28;;;;;;;;;;;;;;;19.60;53.82;100785.69;4968531;28;19918;-65
2022/10/29 10:37:54;;;;;;;;;;;;;;;19.72;53.43;100785.06;4976796;28;19926;-65
2022/10/29 10:40:23;;;;;;;;;;;;;;;19.87;52.87;100783.38;4976450;28;19984;-64
2022/10/29 10:42:51;;;;;;;;;;;;;;;19.52;53.59;100779.91;4975823;28;20005;-63
2022/10/29 10:45:22;;;;;;;;;;;;;;;19.76;53.07;100783.97;4974524;28;19922;-65
2022/10/29 10:47:56;;;;;;;;;;;;;;;19.72;52.50;100779.72;4976144;28;20518;-64
2022/10/29 10:50:29;;;;;;;;;;;;;;;19.64;52.84;100798.78;4969851;28;19925;-65
2022/10/29 10:52:58;;;;;;;;;;;;;;;19.59;53.08;100795.50;4975834;28;19977;-65
2022/10/29 10:55:26;;;;;;;;;;;;;;;19.56;53.24;100802.78;4975916;28;19925;-63
2022/10/29 10:57:58;;;;;;;;;;;;;;;19.44;52.82;100801.59;4975743;28;20053;-63
2022/10/29 11:00:23;;;;;;;;;;;;;;;19.66;52.88;100791.56;4976019;28;19918;-64
2022/10/29 11:02:53;;;;;;;;;;;;;;;20.30;52.19;100802.34;4975712;28;19924;-63
2022/10/29 11:05:21;;;;;;;;;;;;;;;20.14;51.29;100797.88;4969943;28;19918;-63
2022/10/29 11:07:49;;;;;;;;;;;;;;;19.74;51.21;100801.81;4975393;28;19965;-64
2022/10/29 11:10:17;;;;;;;;;;;;;;;19.70;52.76;100794.94;4975606;28;20009;-65
2022/10/29 11:12:48;;;;;;;;;;;;;;;19.79;51.89;100812.25;4975403;28;19925;-64
2022/10/29 11:15:22;;;;;;;;;;;;;;;19.82;51.31;100812.09;4975212;28;19922;-64
2022/10/29 11:17:58;;;;;;;;;;;;;;;19.69;51.77;100802.06;4975316;28;19922;-64
2022/10/29 11:20:30;;;;;;;;;;;;;;;19.69;51.91;100804.75;4970589;28;19929;-64
2022/10/29 11:23:01;;;;;;;;;;;;;;;19.75;52.10;100802.69;4975427;28;19965;-64
2022/10/29 11:25:30;;;;;;;;;;;;;;;19.70;52.52;100808.25;4974724;28;20338;-64
2022/10/29 11:28:05;;;;;;;;;;;;;;;19.47;52.44;100837.88;4975093;28;19918;-64
2022/10/29 11:30:32;;;;;;;;;;;;;;;19.37;52.38;100813.53;4975117;28;19925;-64
2022/10/29 11:33:16;;;;;;;;;;;;;;;19.84;51.65;100805.75;4974842;28;19973;-64
2022/10/29 11:35:45;;;;;;;;;;;;;;;19.93;50.90;100812.38;4974798;28;19925;-64
2022/10/29 11:38:17;;;;;;;;;;;;;;;19.98;50.65;100801.47;4974490;28;19930;-64
2022/10/29 11:40:45;;;;;;;;;;;;;;;19.86;50.47;100806.50;4974552;28;19925;-64
2022/10/29 11:43:12;;;;;;;;;;;;;;;19.37;50.89;100833.03;4971984;28;20000;-64
2022/10/29 11:45:55;;;;;;;;;;;;;;;19.85;49.86;100804.78;4974981;28;20369;-64
2022/10/29 11:48:26;;;;;;;;;;;;;;;19.77;50.17;100800.81;4973982;28;19918;-64
2022/10/29 11:50:52;;;;;;;;;;;;;;;19.73;49.92;100825.91;4974807;28;20432;-64
2022/10/29 11:53:28;;;;;;;;;;;;;;;19.78;49.48;100811.38;4975484;28;19918;-64
2022/10/29 11:56:12;;;;;;;;;;;;;;;19.54;49.30;100807.31;4974298;28;19924;-64
2022/10/29 11:58:37;;;;;;;;;;;;;;;19.47;49.67;100813.91;4973954;28;19921;-64
2022/10/29 12:01:05;;;;;;;;;;;;;;;19.37;49.60;100801.06;4977918;28;20004;-63
2022/10/29 12:03:40;;;;;;;;;;;;;;;19.44;49.58;100799.81;4967631;28;19961;-64
2022/10/29 12:06:08;;;;;;;;;;;;;;;19.13;49.85;100807.63;4956163;29;19914;-64
2022/10/29 12:08:59;;;;;;;;;;;;;;;19.01;50.50;100837.53;4974635;28;19918;-63
2022/10/29 12:11:25;;;;;;;;;;;;;;;19.75;49.88;100810.69;4952189;28;19922;-63
2022/10/29 12:14:02;;;;;;;;;;;;;;;19.47;50.51;100805.91;4967722;28;19915;-63
2022/10/29 12:16:32;;;;;;;;;;;;;;;19.28;50.56;100809.53;4969377;28;19921;-62
2022/10/29 12:18:57;;;;;;;;;;;;;;;19.27;50.43;100813.13;4975526;28;20370;-63
2022/10/29 12:21:26;;;;;;;;;;;;;;;19.23;49.64;100808.91;4986410;28;19964;-63
2022/10/29 12:24:10;;;;;;;;;;;;;;;19.54;49.29;100788.66;4974417;28;20401;-62
2022/10/29 12:26:35;;;;;;;;;;;;;;;19.87;48.92;100800.25;4973598;28;19965;-64
2022/10/29 12:29:04;;;;;;;;;;;;;;;19.51;48.83;100807.47;4974422;28;19918;-63
2022/10/29 12:31:32;;;;;;;;;;;;;;;19.40;48.92;100811.56;4974397;28;19957;-63
2022/10/29 12:34:00;;;;;;;;;;;;;;;19.86;48.68;100797.66;4974663;28;19922;-64
2022/10/29 12:36:32;;;;;;;;;;;;;;;19.65;49.53;100799.66;4973397;28;20275;-64
2022/10/29 12:38:58;;;;;;;;;;;;;;;19.80;49.36;100806.84;4972307;28;20005;-65
2022/10/29 12:41:42;;;;;;;;;;;;;;;19.72;49.17;100810.88;4972753;28;19940;-63